Time;durP1;ratioP1;P1;durP2;ratioP2;P2;SDS_P1;SDS_P2;PMS_P1;PMS_P2;Temp;Humidity;BMP_temperature;BMP_pressure;BME280_temperature;BME280_humidity;BME280_pressure;Samples;Min_cycle;Max_cycle;Signal;HPM_P1;HPM_P2
2023/12/29 00:00:50;;;;;;;3.60;2.93;;;8.70;1.00;;;;;;5089136;28;20537;-76
2023/12/29 00:03:17;;;;;;;3.00;2.00;;;8.70;1.00;;;;;;5085698;28;21309;-74
2023/12/29 00:05:44;;;;;;;3.43;2.30;;;8.70;1.00;;;;;;5090255;27;20579;-77
2023/12/29 00:08:11;;;;;;;4.13;2.53;;;8.70;1.00;;;;;;5088528;28;20478;-74
2023/12/29 00:10:38;;;;;;;3.87;2.37;;;8.80;1.00;;;;;;5088128;27;20455;-75
2023/12/29 00:13:06;;;;;;;3.07;2.30;;;8.80;1.00;;;;;;5088533;27;20466;-76
2023/12/29 00:15:33;;;;;;;3.67;2.60;;;8.70;1.00;;;;;;5086967;28;21130;-75
2023/12/29 00:18:00;;;;;;;3.10;2.80;;;8.80;1.00;;;;;;5089155;27;20580;-75
2023/12/29 00:20:28;;;;;;;2.37;2.17;;;8.80;1.00;;;;;;5088765;27;20527;-74
2023/12/29 00:22:58;;;;;;;5.03;2.90;;;8.80;1.00;;;;;;5090711;27;20485;-73
2023/12/29 00:25:25;;;;;;;2.63;2.40;;;8.80;1.00;;;;;;5088857;27;20477;-73
2023/12/29 00:27:52;;;;;;;4.30;2.67;;;8.80;1.00;;;;;;5088842;27;20478;-74
2023/12/29 00:30:20;;;;;;;4.27;2.40;;;8.80;1.00;;;;;;5087402;27;21000;-72
2023/12/29 00:32:48;;;;;;;2.33;2.13;;;8.80;1.00;;;;;;5085618;28;20458;-73
2023/12/29 00:35:15;;;;;;;5.07;2.10;;;8.80;1.00;;;;;;5090156;27;20469;-75
2023/12/29 00:37:42;;;;;;;2.67;2.47;;;8.80;1.00;;;;;;5088030;27;20557;-74
2023/12/29 00:40:10;;;;;;;3.70;2.50;;;8.80;1.00;;;;;;5088393;28;20919;-75
2023/12/29 00:42:37;;;;;;;2.50;2.30;;;8.80;1.00;;;;;;5086865;28;21052;-76
2023/12/29 00:45:05;;;;;;;4.23;2.30;;;8.80;1.00;;;;;;5086668;28;20478;-75
2023/12/29 00:47:33;;;;;;;3.17;2.87;;;8.80;1.00;;;;;;5086066;27;20463;-75
2023/12/29 00:50:00;;;;;;;2.37;2.17;;;8.80;1.00;;;;;;5089358;28;20473;-75
2023/12/29 00:52:28;;;;;;;4.17;2.13;;;8.80;1.00;;;;;;5089231;27;21253;-74
2023/12/29 00:54:55;;;;;;;2.90;2.47;;;8.90;1.00;;;;;;5079416;27;20526;-74
2023/12/29 00:57:22;;;;;;;5.37;3.10;;;8.90;1.00;;;;;;5072640;27;20572;-74
2023/12/29 00:59:48;;;;;;;2.30;2.10;;;8.80;1.00;;;;;;5073848;27;20556;-74
2023/12/29 01:02:16;;;;;;;2.50;2.30;;;8.80;1.00;;;;;;5067515;28;20502;-75
2023/12/29 01:04:44;;;;;;;2.93;2.70;;;8.80;1.00;;;;;;5059978;28;20550;-75
2023/12/29 01:07:11;;;;;;;3.00;1.93;;;8.90;1.00;;;;;;5081145;27;20602;-74
2023/12/29 01:09:41;;;;;;;4.53;2.67;;;8.80;1.00;;;;;;5087220;27;20466;-75
2023/12/29 01:12:08;;;;;;;2.93;1.87;;;8.80;1.00;;;;;;5073283;28;20463;-74
2023/12/29 01:14:35;;;;;;;3.10;2.60;;;8.80;1.00;;;;;;5087411;27;20561;-75
2023/12/29 01:17:02;;;;;;;2.30;2.10;;;8.80;1.00;;;;;;5084139;27;20540;-75
2023/12/29 01:19:29;;;;;;;2.10;1.90;;;8.80;1.00;;;;;;5072130;28;20478;-74
2023/12/29 01:21:58;;;;;;;3.40;2.20;;;8.80;1.00;;;;;;5065758;28;20611;-75
2023/12/29 01:24:24;;;;;;;3.80;2.00;;;8.80;1.00;;;;;;5065982;28;20467;-75
2023/12/29 01:26:52;;;;;;;4.47;2.33;;;8.80;1.00;;;;;;5065948;27;20951;-75
2023/12/29 01:29:18;;;;;;;2.93;2.30;;;8.80;1.00;;;;;;5065176;28;20483;-74
2023/12/29 01:31:45;;;;;;;5.77;2.20;;;8.80;1.00;;;;;;5069255;28;20447;-75
2023/12/29 01:34:12;;;;;;;2.70;2.13;;;8.80;1.00;;;;;;5087364;28;21348;-74
2023/12/29 01:36:39;;;;;;;2.00;1.80;;;8.70;1.00;;;;;;5086823;28;20525;-76
2023/12/29 01:39:08;;;;;;;4.07;2.30;;;8.70;1.00;;;;;;5081365;27;20516;-76
2023/12/29 01:41:34;;;;;;;2.30;2.10;;;8.80;1.00;;;;;;5073116;27;20458;-76
2023/12/29 01:44:22;;;;;;;3.63;2.00;;;8.80;1.00;;;;;;5078843;28;20974;-75
2023/12/29 01:46:51;;;;;;;2.57;2.00;;;8.80;1.00;;;;;;5084628;27;20527;-75
2023/12/29 01:49:18;;;;;;;2.83;2.10;;;8.80;1.00;;;;;;5085627;27;20958;-77
2023/12/29 01:51:47;;;;;;;2.60;2.40;;;8.80;1.00;;;;;;5066969;28;20505;-76
2023/12/29 01:54:16;;;;;;;2.07;1.87;;;8.80;1.00;;;;;;5064065;28;20558;-75
2023/12/29 01:56:43;;;;;;;3.67;2.30;;;8.80;1.00;;;;;;5064836;27;20475;-76
2023/12/29 01:59:10;;;;;;;3.37;1.90;;;8.80;1.00;;;;;;5076921;27;20465;-74
2023/12/29 02:01:39;;;;;;;3.23;1.93;;;8.80;1.00;;;;;;5076069;27;20478;-75
2023/12/29 02:04:07;;;;;;;5.50;2.37;;;8.80;1.00;;;;;;5073050;28;20475;-75
2023/12/29 02:06:37;;;;;;;2.43;2.23;;;8.80;1.00;;;;;;5074823;27;20470;-75
2023/12/29 02:09:04;;;;;;;3.03;2.10;;;8.80;1.00;;;;;;5082511;28;21380;-74
2023/12/29 02:11:33;;;;;;;3.23;2.10;;;8.80;1.00;;;;;;5085572;27;20539;-74
2023/12/29 02:14:01;;;;;;;2.27;1.97;;;8.80;1.00;;;;;;5072119;27;20503;-75
2023/12/29 02:16:36;;;;;;;4.03;1.97;;;8.80;1.00;;;;;;5072058;28;20482;-74
2023/12/29 02:19:09;;;;;;;2.40;2.03;;;8.80;1.00;;;;;;5078803;27;20501;-74
2023/12/29 02:21:36;;;;;;;3.17;2.20;;;8.90;1.00;;;;;;5067512;28;20552;-75
2023/12/29 02:24:03;;;;;;;11.03;6.23;;;8.90;1.00;;;;;;5078145;27;20557;-75
2023/12/29 02:26:35;;;;;;;2.13;1.90;;;8.90;1.00;;;;;;5083762;27;20603;-74
2023/12/29 02:29:05;;;;;;;2.70;2.40;;;8.90;1.00;;;;;;5070012;27;20899;-74
2023/12/29 02:31:33;;;;;;;2.40;1.90;;;8.90;1.00;;;;;;5073513;27;20546;-73
2023/12/29 02:34:06;;;;;;;2.70;1.80;;;8.90;1.00;;;;;;5079985;28;20525;-74
2023/12/29 02:36:34;;;;;;;2.50;2.10;;;8.90;1.00;;;;;;5085230;27;20811;-75
2023/12/29 02:39:01;;;;;;;3.07;2.73;;;8.90;1.00;;;;;;5084971;28;20458;-74
2023/12/29 02:41:27;;;;;;;3.00;2.03;;;8.90;1.00;;;;;;5085790;28;20591;-75
2023/12/29 02:43:56;;;;;;;4.87;2.33;;;8.90;1.00;;;;;;5087419;27;20471;-75
2023/12/29 02:46:23;;;;;;;2.57;2.17;;;8.90;1.00;;;;;;5073799;28;21095;-75
2023/12/29 02:48:50;;;;;;;2.30;2.10;;;8.90;1.00;;;;;;5087217;28;20455;-73
2023/12/29 02:51:17;;;;;;;2.83;2.43;;;8.90;1.00;;;;;;5084596;28;20556;-76
2023/12/29 02:53:44;;;;;;;2.93;2.20;;;8.80;1.00;;;;;;5083676;27;20561;-75
2023/12/29 02:56:12;;;;;;;2.87;2.50;;;8.80;1.00;;;;;;5083979;28;20549;-76
2023/12/29 02:58:38;;;;;;;2.90;1.90;;;8.80;1.00;;;;;;5082352;27;20461;-75
2023/12/29 03:01:07;;;;;;;3.50;1.97;;;8.90;1.00;;;;;;5084403;28;20511;-75
2023/12/29 03:03:34;;;;;;;2.13;1.93;;;8.90;1.00;;;;;;5087151;27;20470;-76
2023/12/29 03:06:01;;;;;;;3.33;2.23;;;8.90;1.00;;;;;;5084191;27;20512;-76
2023/12/29 03:08:28;;;;;;;3.50;1.90;;;8.90;1.00;;;;;;5063539;27;20482;-74
2023/12/29 03:10:55;;;;;;;2.40;2.20;;;8.90;1.00;;;;;;5066450;28;20530;-75
2023/12/29 03:13:22;;;;;;;4.00;2.20;;;8.90;1.00;;;;;;5061751;28;20955;-75
2023/12/29 03:15:49;;;;;;;2.63;2.17;;;8.90;1.00;;;;;;5073271;28;20496;-75
2023/12/29 03:18:17;;;;;;;2.50;2.20;;;9.00;1.00;;;;;;5083901;27;20585;-76
2023/12/29 03:20:44;;;;;;;2.47;2.20;;;9.00;1.00;;;;;;5074133;27;20483;-74
2023/12/29 03:23:11;;;;;;;1.60;1.50;;;9.10;1.00;;;;;;5061258;28;20507;-74
2023/12/29 03:25:38;;;;;;;2.67;2.10;;;9.00;1.00;;;;;;5067434;28;20453;-76
2023/12/29 03:28:05;;;;;;;2.90;1.90;;;9.00;1.00;;;;;;5066474;28;20490;-75
2023/12/29 03:30:32;;;;;;;1.70;1.60;;;9.00;1.00;;;;;;5067327;28;20482;-74
2023/12/29 03:32:59;;;;;;;2.17;1.67;;;9.00;1.00;;;;;;5075225;27;20467;-75
2023/12/29 03:35:27;;;;;;;3.83;1.77;;;9.00;1.00;;;;;;5084693;28;21013;-74
2023/12/29 03:37:54;;;;;;;3.37;1.97;;;9.00;1.00;;;;;;5088682;28;20455;-75
2023/12/29 03:40:21;;;;;;;1.90;1.77;;;9.00;1.00;;;;;;5091533;28;20447;-73
2023/12/29 03:42:48;;;;;;;1.90;1.80;;;9.00;1.00;;;;;;5089382;27;20457;-74
2023/12/29 03:45:15;;;;;;;2.57;2.13;;;9.10;1.00;;;;;;5088215;28;20533;-74
2023/12/29 03:47:42;;;;;;;2.43;2.10;;;9.10;1.00;;;;;;5086555;28;20471;-73
2023/12/29 03:50:09;;;;;;;2.43;1.83;;;9.20;1.00;;;;;;5087954;28;20505;-72
2023/12/29 03:52:38;;;;;;;2.97;1.60;;;9.20;1.00;;;;;;5086840;27;20513;-75
2023/12/29 03:55:06;;;;;;;2.20;2.00;;;9.30;1.00;;;;;;5076777;28;20474;-75
2023/12/29 03:57:33;;;;;;;2.50;1.40;;;9.30;1.00;;;;;;5068030;28;20508;-75
2023/12/29 04:00:00;;;;;;;2.50;2.17;;;9.20;1.00;;;;;;5066289;27;20456;-75
2023/12/29 04:02:27;;;;;;;2.37;2.10;;;9.30;1.00;;;;;;5064130;27;20538;-75
2023/12/29 04:04:54;;;;;;;2.43;1.80;;;9.30;1.00;;;;;;5087829;27;20450;-75
2023/12/29 04:07:21;;;;;;;1.50;1.40;;;9.30;1.00;;;;;;5086534;27;20458;-75
2023/12/29 04:09:49;;;;;;;2.70;1.97;;;9.40;1.00;;;;;;5085719;27;20462;-76
2023/12/29 04:12:17;;;;;;;2.40;1.67;;;9.40;1.00;;;;;;5077878;27;20505;-74
2023/12/29 04:14:44;;;;;;;1.47;1.37;;;9.40;1.00;;;;;;5065416;27;20450;-76
2023/12/29 04:17:13;;;;;;;2.77;1.67;;;9.40;1.00;;;;;;5086521;28;20961;-74
2023/12/29 04:19:40;;;;;;;1.80;1.30;;;9.40;1.00;;;;;;5085852;27;20474;-75
2023/12/29 04:22:08;;;;;;;1.60;1.40;;;9.30;1.00;;;;;;5073523;28;20580;-75
2023/12/29 04:24:34;;;;;;;3.67;1.63;;;9.30;1.00;;;;;;5085044;27;20446;-75
2023/12/29 04:27:03;;;;;;;1.67;1.53;;;9.30;1.00;;;;;;5087384;27;20561;-75
2023/12/29 04:29:30;;;;;;;1.40;1.30;;;9.30;1.00;;;;;;5080028;27;20458;-74
2023/12/29 04:31:57;;;;;;;2.93;1.60;;;9.30;1.00;;;;;;5065839;28;20499;-73
2023/12/29 04:34:24;;;;;;;3.23;1.47;;;9.30;1.00;;;;;;5067403;28;20455;-74
2023/12/29 04:36:51;;;;;;;3.00;1.53;;;9.30;1.00;;;;;;5076302;27;20456;-73
2023/12/29 04:39:18;;;;;;;2.00;1.40;;;9.30;1.00;;;;;;5081899;27;20970;-76
2023/12/29 04:41:46;;;;;;;1.40;1.30;;;9.30;1.00;;;;;;5080291;28;21023;-75
2023/12/29 04:44:14;;;;;;;1.70;1.60;;;9.40;1.00;;;;;;5080341;27;21084;-74
2023/12/29 04:46:42;;;;;;;3.10;1.50;;;9.40;1.00;;;;;;5070860;27;20436;-75
2023/12/29 04:49:09;;;;;;;1.90;1.50;;;9.40;1.00;;;;;;5082642;27;20551;-74
2023/12/29 04:51:36;;;;;;;2.97;2.00;;;9.30;1.00;;;;;;5087038;27;20474;-75
2023/12/29 04:54:03;;;;;;;1.63;1.50;;;9.30;1.00;;;;;;5075233;27;20506;-74
2023/12/29 04:56:30;;;;;;;1.60;1.40;;;9.20;1.00;;;;;;5084493;27;21123;-75
2023/12/29 04:58:59;;;;;;;2.10;1.37;;;9.20;1.00;;;;;;5087479;27;20644;-74
2023/12/29 05:01:28;;;;;;;1.40;1.30;;;9.30;1.00;;;;;;5086315;27;21005;-75
2023/12/29 05:03:54;;;;;;;1.27;1.17;;;9.30;1.00;;;;;;5081684;27;21386;-78
2023/12/29 05:06:21;;;;;;;1.70;1.00;;;9.30;1.00;;;;;;5084281;27;20459;-77
2023/12/29 05:08:48;;;;;;;2.00;1.03;;;9.30;1.00;;;;;;5084870;27;20447;-73
2023/12/29 05:11:15;;;;;;;1.50;1.40;;;9.40;1.00;;;;;;5077979;27;20486;-76
2023/12/29 05:13:42;;;;;;;2.50;1.33;;;9.40;1.00;;;;;;5062678;27;20601;-74
2023/12/29 05:16:09;;;;;;;2.00;1.40;;;9.40;1.00;;;;;;5079180;28;20463;-75
2023/12/29 05:18:38;;;;;;;1.20;1.10;;;9.40;1.00;;;;;;5085716;27;20459;-73
2023/12/29 05:21:05;;;;;;;2.70;1.50;;;9.40;1.00;;;;;;5086883;27;20494;-74
2023/12/29 05:23:32;;;;;;;1.73;1.43;;;9.40;1.00;;;;;;5074732;28;20546;-76
2023/12/29 05:25:59;;;;;;;1.20;1.10;;;9.40;1.00;;;;;;5064242;28;20955;-75
2023/12/29 05:28:27;;;;;;;1.30;0.80;;;9.40;1.00;;;;;;5065443;27;20551;-73
2023/12/29 05:30:53;;;;;;;1.83;1.27;;;9.40;1.00;;;;;;5070314;27;20467;-76
2023/12/29 05:33:21;;;;;;;3.47;1.03;;;9.40;1.00;;;;;;5086489;28;20545;-75
2023/12/29 05:35:49;;;;;;;1.20;1.10;;;9.40;1.00;;;;;;5084073;27;21413;-75
2023/12/29 05:38:16;;;;;;;1.27;1.03;;;9.40;1.00;;;;;;5085635;27;21199;-75
2023/12/29 05:40:43;;;;;;;1.50;1.40;;;9.40;1.00;;;;;;5085505;27;20497;-76
2023/12/29 05:43:10;;;;;;;1.97;1.30;;;9.50;1.00;;;;;;5086120;28;21204;-73
2023/12/29 05:45:37;;;;;;;1.37;1.27;;;9.50;1.00;;;;;;5083708;28;20431;-74
2023/12/29 05:48:05;;;;;;;2.00;1.33;;;9.60;1.00;;;;;;5082097;28;21253;-72
2023/12/29 05:50:32;;;;;;;1.50;1.10;;;9.60;1.00;;;;;;5083190;28;20474;-76
2023/12/29 05:53:01;;;;;;;1.80;1.00;;;9.70;1.00;;;;;;5085221;27;20454;-75
2023/12/29 05:55:28;;;;;;;1.50;1.20;;;9.70;1.00;;;;;;5082657;27;20455;-73
2023/12/29 05:57:55;;;;;;;1.63;1.30;;;9.70;1.00;;;;;;5072927;28;21659;-76
2023/12/29 06:00:22;;;;;;;2.03;1.30;;;9.80;1.00;;;;;;5072822;28;20462;-76
2023/12/29 06:02:49;;;;;;;2.23;1.60;;;9.70;1.00;;;;;;5064705;27;20520;-73
2023/12/29 06:05:17;;;;;;;1.43;1.13;;;9.70;1.00;;;;;;5077076;27;20467;-73
2023/12/29 06:07:44;;;;;;;1.83;1.47;;;9.70;1.00;;;;;;5082349;27;20581;-74
2023/12/29 06:10:12;;;;;;;1.93;1.57;;;9.60;1.00;;;;;;5064806;28;20563;-75
2023/12/29 06:12:39;;;;;;;3.20;1.70;;;9.70;1.00;;;;;;5065182;27;20950;-75
2023/12/29 06:15:07;;;;;;;1.63;1.37;;;9.70;1.00;;;;;;5070836;28;20531;-74
2023/12/29 06:17:35;;;;;;;3.60;1.20;;;9.80;1.00;;;;;;5082122;28;20548;-76
2023/12/29 06:20:05;;;;;;;2.00;1.10;;;9.80;1.00;;;;;;5085752;28;21002;-74
2023/12/29 06:22:32;;;;;;;2.10;1.13;;;9.80;1.00;;;;;;5084651;27;20574;-74
2023/12/29 06:24:59;;;;;;;2.60;1.20;;;9.80;1.00;;;;;;5085716;27;20465;-75
2023/12/29 06:27:28;;;;;;;2.20;1.50;;;9.80;1.00;;;;;;5082408;27;20562;-75
2023/12/29 06:29:55;;;;;;;3.17;1.07;;;9.80;1.00;;;;;;5062955;28;20569;-73
2023/12/29 06:32:22;;;;;;;2.93;1.60;;;9.80;1.00;;;;;;5079965;27;21073;-75
2023/12/29 06:34:49;;;;;;;1.77;1.23;;;9.90;1.00;;;;;;5084779;27;21251;-75
2023/12/29 06:37:16;;;;;;;4.67;1.20;;;9.90;1.00;;;;;;5082379;27;20478;-74
2023/12/29 06:39:43;;;;;;;2.30;1.20;;;9.90;1.00;;;;;;5064923;27;20576;-75
2023/12/29 06:42:10;;;;;;;1.67;1.37;;;9.90;1.00;;;;;;5071616;28;20966;-74
2023/12/29 06:44:39;;;;;;;2.13;1.20;;;10.00;1.00;;;;;;5067029;27;20472;-71
2023/12/29 06:47:06;;;;;;;1.60;1.50;;;10.00;1.00;;;;;;5065376;27;21283;-75
2023/12/29 06:49:33;;;;;;;1.30;1.10;;;10.00;1.00;;;;;;5061310;28;21064;-74
2023/12/29 06:52:02;;;;;;;2.23;2.03;;;10.00;1.00;;;;;;5062351;28;20446;-73
2023/12/29 06:54:29;;;;;;;3.43;1.40;;;10.00;1.00;;;;;;5064655;28;20501;-74
2023/12/29 06:56:56;;;;;;;1.87;1.77;;;10.00;1.00;;;;;;5083534;27;20454;-74
2023/12/29 06:59:23;;;;;;;1.80;1.27;;;10.00;1.00;;;;;;5084628;27;20490;-74
2023/12/29 07:01:52;;;;;;;4.13;1.80;;;10.10;1.00;;;;;;5084455;27;20500;-76
2023/12/29 07:04:19;;;;;;;1.53;1.20;;;10.10;1.00;;;;;;5067416;27;20961;-75
2023/12/29 07:06:46;;;;;;;3.10;1.57;;;10.10;1.00;;;;;;5081292;27;20946;-75
2023/12/29 07:09:14;;;;;;;4.40;1.77;;;10.00;1.00;;;;;;5081753;27;20981;-75
2023/12/29 07:11:41;;;;;;;2.47;1.17;;;10.00;1.00;;;;;;5081455;27;21268;-76
2023/12/29 07:14:08;;;;;;;1.80;1.70;;;10.10;1.00;;;;;;5086487;27;20458;-75
2023/12/29 07:16:35;;;;;;;1.80;1.60;;;10.10;1.00;;;;;;5084406;27;20463;-74
2023/12/29 07:19:04;;;;;;;3.07;1.67;;;10.10;1.00;;;;;;5081389;28;20554;-75
2023/12/29 07:21:31;;;;;;;1.40;1.30;;;10.10;1.00;;;;;;5081190;27;20489;-76
2023/12/29 07:23:58;;;;;;;1.37;1.10;;;10.20;1.00;;;;;;5076087;27;22415;-76
2023/12/29 07:26:25;;;;;;;1.50;1.40;;;10.10;1.00;;;;;;5079404;27;20490;-73
2023/12/29 07:28:54;;;;;;;2.30;1.80;;;10.20;1.00;;;;;;5069841;28;20477;-74
2023/12/29 07:31:21;;;;;;;1.70;1.20;;;10.20;1.00;;;;;;5077445;27;20514;-75
2023/12/29 07:33:48;;;;;;;1.57;1.40;;;10.20;1.00;;;;;;5075607;27;20435;-74
2023/12/29 07:36:18;;;;;;;2.67;2.00;;;10.20;1.00;;;;;;5083370;27;20528;-75
2023/12/29 07:38:45;;;;;;;2.30;1.53;;;10.20;1.00;;;;;;5084368;28;20986;-75
2023/12/29 07:41:12;;;;;;;2.73;1.20;;;10.20;1.00;;;;;;5086432;27;20457;-75
2023/12/29 07:43:39;;;;;;;1.87;1.53;;;10.20;1.00;;;;;;5081142;27;20469;-73
2023/12/29 07:46:07;;;;;;;2.40;2.20;;;10.20;1.00;;;;;;5087869;28;20473;-75
2023/12/29 07:48:34;;;;;;;1.87;1.50;;;10.30;1.00;;;;;;5082836;28;20484;-74
2023/12/29 07:51:06;;;;;;;1.80;1.63;;;10.20;1.00;;;;;;5086862;28;20427;-74
2023/12/29 07:53:35;;;;;;;2.40;1.60;;;10.20;1.00;;;;;;5081325;27;20475;-75
2023/12/29 07:56:02;;;;;;;4.90;1.73;;;10.10;1.00;;;;;;5084529;27;20455;-74
2023/12/29 07:58:29;;;;;;;2.43;1.60;;;10.10;1.00;;;;;;5081558;27;20523;-76
2023/12/29 08:00:56;;;;;;;2.60;1.47;;;10.10;1.00;;;;;;5074934;27;20478;-74
2023/12/29 08:03:23;;;;;;;2.47;1.50;;;10.10;1.00;;;;;;5079944;28;20602;-73
2023/12/29 08:05:50;;;;;;;3.43;1.90;;;10.20;1.00;;;;;;5083205;27;20486;-76
2023/12/29 08:08:19;;;;;;;2.60;1.90;;;10.20;1.00;;;;;;5081307;27;20455;-75
2023/12/29 08:10:50;;;;;;;2.63;1.63;;;10.30;1.00;;;;;;5081725;27;20451;-76
2023/12/29 08:13:17;;;;;;;2.47;1.80;;;10.30;1.00;;;;;;5070365;27;20467;-74
2023/12/29 08:15:44;;;;;;;1.73;1.20;;;10.40;1.00;;;;;;5067883;28;20588;-74
2023/12/29 08:18:12;;;;;;;2.70;1.50;;;10.50;1.00;;;;;;5086128;27;20606;-75
2023/12/29 08:20:39;;;;;;;1.73;1.50;;;10.50;1.00;;;;;;5069986;27;20455;-75
2023/12/29 08:23:05;;;;;;;1.90;1.57;;;10.60;1.00;;;;;;5088783;27;20544;-74
2023/12/29 08:25:33;;;;;;;3.60;1.77;;;10.60;1.00;;;;;;5090229;27;20451;-75
2023/12/29 08:28:01;;;;;;;3.83;1.60;;;10.60;1.00;;;;;;5087223;27;20473;-75
2023/12/29 08:30:28;;;;;;;1.87;1.50;;;10.60;1.00;;;;;;5086067;27;20657;-75
2023/12/29 08:32:55;;;;;;;4.13;2.20;;;10.60;1.00;;;;;;5083153;28;20457;-74
2023/12/29 08:35:22;;;;;;;1.73;1.60;;;10.60;1.00;;;;;;5086170;27;20486;-75
2023/12/29 08:37:49;;;;;;;3.13;2.10;;;10.90;1.00;;;;;;5086861;27;20538;-74
2023/12/29 08:40:16;;;;;;;3.37;1.53;;;11.30;1.00;;;;;;5089584;27;20539;-73
2023/12/29 08:42:43;;;;;;;3.10;1.70;;;11.50;1.00;;;;;;5090517;27;20961;-74
2023/12/29 08:45:12;;;;;;;2.60;1.20;;;11.50;1.00;;;;;;5082294;28;20450;-73
2023/12/29 08:47:41;;;;;;;2.40;1.60;;;11.50;1.00;;;;;;5073802;27;20471;-75
2023/12/29 08:50:08;;;;;;;3.07;2.77;;;11.30;1.00;;;;;;5085754;28;20458;-74
2023/12/29 08:52:36;;;;;;;2.07;1.87;;;11.20;1.00;;;;;;5086859;28;20465;-75
2023/12/29 08:55:03;;;;;;;2.40;1.90;;;11.10;1.00;;;;;;5084408;28;20987;-77
2023/12/29 08:57:32;;;;;;;3.70;1.60;;;11.10;1.00;;;;;;5086245;27;22412;-73
2023/12/29 09:00:00;;;;;;;2.37;1.80;;;11.10;1.00;;;;;;5085369;28;20498;-75
2023/12/29 09:02:28;;;;;;;2.63;1.67;;;11.00;1.00;;;;;;5088745;27;20545;-74
2023/12/29 09:04:55;;;;;;;1.90;1.80;;;11.00;1.00;;;;;;5089638;28;20541;-76
2023/12/29 09:07:27;;;;;;;5.50;1.87;;;10.90;1.00;;;;;;5085422;28;20574;-74
2023/12/29 09:09:55;;;;;;;4.60;1.93;;;10.80;1.00;;;;;;5075880;27;20589;-75
2023/12/29 09:12:22;;;;;;;2.03;1.50;;;10.90;1.00;;;;;;5079171;27;20507;-75
2023/12/29 09:14:49;;;;;;;3.00;1.60;;;11.10;1.00;;;;;;5085532;27;20467;-75
2023/12/29 09:17:16;;;;;;;1.80;1.70;;;11.20;1.00;;;;;;5066888;27;20561;-75
2023/12/29 09:19:44;;;;;;;2.20;1.53;;;11.20;1.00;;;;;;5084201;28;21317;-74
2023/12/29 09:22:11;;;;;;;3.40;2.30;;;11.30;1.00;;;;;;5088051;27;20469;-75
2023/12/29 09:24:38;;;;;;;2.13;1.50;;;11.40;1.00;;;;;;5087491;28;20476;-75
2023/12/29 09:27:05;;;;;;;3.10;1.80;;;11.40;1.00;;;;;;5085883;27;20466;-72
2023/12/29 09:29:32;;;;;;;2.67;1.73;;;11.50;1.00;;;;;;5063737;28;21651;-72
2023/12/29 09:31:59;;;;;;;2.77;1.80;;;11.50;1.00;;;;;;5071571;27;20888;-71
2023/12/29 09:34:26;;;;;;;3.47;1.40;;;11.50;1.00;;;;;;5073979;27;20610;-70
2023/12/29 09:36:55;;;;;;;3.87;1.90;;;11.60;1.00;;;;;;5086815;27;20468;-73
2023/12/29 09:39:23;;;;;;;2.50;1.50;;;11.60;1.00;;;;;;5087747;27;21274;-70
2023/12/29 09:41:53;;;;;;;2.47;1.50;;;11.60;1.00;;;;;;5068570;28;20451;-72
2023/12/29 09:44:22;;;;;;;2.93;1.87;;;11.70;1.00;;;;;;5073553;27;20487;-71
2023/12/29 09:46:51;;;;;;;2.63;1.67;;;11.80;1.00;;;;;;5083677;27;20561;-72
2023/12/29 09:49:20;;;;;;;3.23;1.67;;;11.80;1.00;;;;;;5083229;27;20461;-70
2023/12/29 09:51:49;;;;;;;2.10;1.83;;;11.80;1.00;;;;;;5085366;27;20455;-70
2023/12/29 09:54:18;;;;;;;3.43;1.70;;;11.80;1.00;;;;;;5085516;27;20518;-74
2023/12/29 09:56:45;;;;;;;2.60;1.63;;;11.70;1.00;;;;;;5084500;27;20472;-72
2023/12/29 09:59:14;;;;;;;2.80;1.70;;;11.70;1.00;;;;;;5075582;27;20524;-73
2023/12/29 10:01:43;;;;;;;2.70;1.80;;;11.60;1.00;;;;;;5085316;28;20550;-72
2023/12/29 10:04:10;;;;;;;3.40;2.23;;;11.50;1.00;;;;;;5080569;27;21290;-74
2023/12/29 10:06:45;;;;;;;2.07;1.67;;;11.60;1.00;;;;;;5084470;27;20501;-74
2023/12/29 10:09:13;;;;;;;4.10;2.10;;;11.60;1.00;;;;;;5084025;27;20446;-72
2023/12/29 10:11:43;;;;;;;2.80;1.73;;;11.60;1.00;;;;;;5087553;28;20489;-72
2023/12/29 10:14:19;;;;;;;2.47;1.77;;;11.60;1.00;;;;;;5085316;27;20467;-71
2023/12/29 10:16:55;;;;;;;3.00;1.70;;;11.50;1.00;;;;;;5074894;27;21861;-71
2023/12/29 10:19:32;;;;;;;5.50;1.80;;;11.50;1.00;;;;;;5083742;27;20458;-71
2023/12/29 10:22:05;;;;;;;4.97;1.67;;;11.60;1.00;;;;;;5082597;27;20482;-71
2023/12/29 10:24:34;;;;;;;2.40;1.63;;;12.00;1.00;;;;;;5071173;28;20487;-73
2023/12/29 10:27:02;;;;;;;6.13;1.83;;;12.10;1.00;;;;;;5078541;28;20562;-73
2023/12/29 10:29:29;;;;;;;3.53;1.70;;;12.30;1.00;;;;;;5081438;27;20510;-72
2023/12/29 10:31:56;;;;;;;1.70;1.23;;;12.30;1.00;;;;;;5070606;27;21073;-71
2023/12/29 10:34:28;;;;;;;2.73;1.30;;;12.20;1.00;;;;;;5073122;27;20467;-71
2023/12/29 10:36:56;;;;;;;2.47;1.37;;;12.20;1.00;;;;;;5070239;27;20567;-71
2023/12/29 10:39:23;;;;;;;2.70;1.80;;;12.20;1.00;;;;;;5062589;28;20461;-72
2023/12/29 10:41:51;;;;;;;4.67;2.00;;;12.30;1.00;;;;;;5060776;28;20499;-73
2023/12/29 10:44:19;;;;;;;2.50;1.43;;;12.40;1.00;;;;;;5068147;27;20949;-72
2023/12/29 10:46:46;;;;;;;6.53;1.70;;;12.40;1.00;;;;;;5075808;27;20539;-70
2023/12/29 10:49:14;;;;;;;2.13;1.50;;;12.20;1.00;;;;;;5065394;28;20423;-72
2023/12/29 10:51:41;;;;;;;5.80;1.70;;;12.20;1.00;;;;;;5062394;28;20598;-72
2023/12/29 10:54:09;;;;;;;1.57;1.13;;;12.20;1.00;;;;;;5072617;27;20457;-71
2023/12/29 10:56:36;;;;;;;5.40;1.90;;;12.20;1.00;;;;;;5082965;27;20882;-74
2023/12/29 10:59:04;;;;;;;1.87;1.70;;;12.10;1.00;;;;;;5077517;28;20459;-71
2023/12/29 11:01:34;;;;;;;3.50;1.73;;;12.20;1.00;;;;;;5069064;28;20478;-71
2023/12/29 11:04:03;;;;;;;3.00;1.60;;;12.20;1.00;;;;;;5065107;27;20492;-71
2023/12/29 11:06:41;;;;;;;3.73;1.70;;;12.20;1.00;;;;;;5066617;28;20499;-71
2023/12/29 11:09:09;;;;;;;3.37;1.80;;;12.20;1.00;;;;;;5080884;28;20619;-71
2023/12/29 11:11:37;;;;;;;1.93;1.70;;;12.20;1.00;;;;;;5057858;27;20874;-73
2023/12/29 11:14:04;;;;;;;3.43;2.23;;;12.20;1.00;;;;;;5084300;27;21049;-71
2023/12/29 11:16:32;;;;;;;2.30;1.77;;;12.30;1.00;;;;;;5062379;28;20591;-73
2023/12/29 11:19:01;;;;;;;2.90;1.70;;;12.30;1.00;;;;;;5066327;28;20973;-74
2023/12/29 11:21:28;;;;;;;5.67;1.80;;;12.20;1.00;;;;;;5082088;27;20479;-71
2023/12/29 11:23:58;;;;;;;2.87;1.87;;;12.20;1.00;;;;;;5082531;28;20464;-73
2023/12/29 11:26:26;;;;;;;3.33;1.83;;;12.20;1.00;;;;;;5083445;28;20469;-74
2023/12/29 11:28:55;;;;;;;3.77;2.03;;;12.20;1.00;;;;;;5086057;27;20459;-72
2023/12/29 11:31:22;;;;;;;2.50;1.50;;;12.20;1.00;;;;;;5072659;28;20468;-71
2023/12/29 11:33:59;;;;;;;3.40;1.70;;;12.20;1.00;;;;;;5083257;28;20466;-73
2023/12/29 11:36:30;;;;;;;2.13;1.73;;;12.20;1.00;;;;;;5082610;27;20476;-71
2023/12/29 11:39:04;;;;;;;1.93;1.73;;;12.10;1.00;;;;;;5085836;28;20510;-72
2023/12/29 11:41:39;;;;;;;3.30;1.50;;;12.10;1.00;;;;;;5083927;28;20951;-71
2023/12/29 11:44:09;;;;;;;4.80;1.60;;;12.10;1.00;;;;;;5086867;27;20462;-72
2023/12/29 11:46:42;;;;;;;2.70;1.67;;;12.20;1.00;;;;;;5083971;27;20477;-72
2023/12/29 11:49:12;;;;;;;1.83;1.50;;;12.30;1.00;;;;;;5067696;28;20546;-72
2023/12/29 11:51:43;;;;;;;2.90;1.80;;;12.30;1.00;;;;;;5066363;28;20453;-71
2023/12/29 11:54:13;;;;;;;2.00;1.60;;;12.20;1.00;;;;;;5076789;27;20733;-73
2023/12/29 11:56:42;;;;;;;4.40;1.90;;;12.10;1.00;;;;;;5087745;27;21370;-72
2023/12/29 11:59:19;;;;;;;4.40;1.70;;;12.20;1.00;;;;;;5082518;27;21167;-71
2023/12/29 12:01:48;;;;;;;2.33;1.80;;;12.10;1.00;;;;;;5070696;28;20529;-72
2023/12/29 12:04:42;;;;;;;2.70;1.70;;;12.20;1.00;;;;;;5085247;27;20484;-72
2023/12/29 12:07:14;;;;;;;2.83;1.73;;;12.10;1.00;;;;;;5063485;28;20476;-71
2023/12/29 12:09:41;;;;;;;2.27;1.50;;;12.10;1.00;;;;;;5072388;27;20444;-73
2023/12/29 12:12:08;;;;;;;4.83;2.20;;;12.00;1.00;;;;;;5066627;27;20460;-72
2023/12/29 12:14:49;;;;;;;4.80;1.77;;;12.00;1.00;;;;;;5069099;27;20460;-71
2023/12/29 12:17:31;;;;;;;3.23;1.50;;;12.10;1.00;;;;;;5083929;27;20633;-72
2023/12/29 12:20:17;;;;;;;3.50;1.67;;;12.00;1.00;;;;;;5081891;27;20530;-71
2023/12/29 12:22:45;;;;;;;1.80;1.50;;;11.90;1.00;;;;;;5068552;28;20587;-71
2023/12/29 12:25:13;;;;;;;3.00;1.63;;;11.90;1.00;;;;;;5069738;28;20521;-71
2023/12/29 12:27:40;;;;;;;1.70;1.60;;;11.80;1.00;;;;;;5065589;28;20465;-73
2023/12/29 12:30:09;;;;;;;3.20;1.80;;;11.80;1.00;;;;;;5082030;27;20544;-74
2023/12/29 12:32:38;;;;;;;2.17;1.73;;;11.70;1.00;;;;;;5084871;28;20543;-73
2023/12/29 12:35:14;;;;;;;2.07;1.37;;;11.50;1.00;;;;;;5069333;28;20965;-75
2023/12/29 12:37:42;;;;;;;3.47;1.50;;;11.30;1.00;;;;;;5075971;28;20487;-71
2023/12/29 12:40:10;;;;;;;2.67;1.23;;;11.00;1.00;;;;;;5068171;28;20646;-71
2023/12/29 12:42:40;;;;;;;2.20;1.70;;;10.80;1.00;;;;;;5079219;28;20487;-72
2023/12/29 12:45:14;;;;;;;4.73;2.20;;;10.70;1.00;;;;;;5089338;28;20474;-77
2023/12/29 12:47:46;;;;;;;1.23;1.10;;;10.60;1.00;;;;;;5083575;27;20463;-72
2023/12/29 12:50:15;;;;;;;2.50;1.37;;;10.60;1.00;;;;;;5082310;28;20478;-72
2023/12/29 12:52:42;;;;;;;2.43;1.40;;;10.50;1.00;;;;;;5072945;28;21010;-72
2023/12/29 12:55:11;;;;;;;2.97;1.67;;;10.40;1.00;;;;;;5076389;27;20529;-72
2023/12/29 12:57:39;;;;;;;3.27;1.50;;;10.40;1.00;;;;;;5065309;28;20468;-71
2023/12/29 13:00:08;;;;;;;6.87;1.80;;;10.30;1.00;;;;;;5068092;28;20458;-72
2023/12/29 13:02:36;;;;;;;2.97;1.90;;;10.30;1.00;;;;;;5087859;28;20443;-74
2023/12/29 13:05:07;;;;;;;2.33;1.67;;;10.20;1.00;;;;;;5077618;27;20464;-73
2023/12/29 13:07:37;;;;;;;1.63;1.40;;;10.20;1.00;;;;;;5065244;28;20564;-71